sensor_id;sensor_type;location;lat;lon;timestamp;pressure;altitude;pressure_sealevel;temperature;humidity
11053;BME280;55230;42.602;23.470;2023-04-25T00:02:09;92835.38;;;9.82;100.00
11053;BME280;55230;42.602;23.470;2023-04-25T00:04:35;92652.44;;;8.60;100.00
11053;BME280;55230;42.602;23.470;2023-04-25T00:07:03;92827.13;;;9.85;100.00
11053;BME280;55230;42.602;23.470;2023-04-25T00:09:31;92824.47;;;9.76;100.00
11053;BME280;55230;42.602;23.470;2023-04-25T00:11:58;92816.63;;;9.87;100.00
11053;BME280;55230;42.602;23.470;2023-04-25T00:14:26;92678.00;;;8.88;100.00
11053;BME280;55230;42.602;23.470;2023-04-25T00:16:55;92643.44;;;8.96;100.00
11053;BME280;55230;42.602;23.470;2023-04-25T00:19:22;92797.94;;;10.07;100.00
11053;BME280;55230;42.602;23.470;2023-04-25T00:21:48;92791.22;;;10.03;100.00
11053;BME280;55230;42.602;23.470;2023-04-25T00:24:15;92742.34;;;9.57;100.00
11053;BME280;55230;42.602;23.470;2023-04-25T00:26:42;92680.13;;;9.08;100.00
11053;BME280;55230;42.602;23.470;2023-04-25T00:29:09;92754.78;;;9.78;100.00
11053;BME280;55230;42.602;23.470;2023-04-25T00:31:35;92734.59;;;9.50;100.00
11053;BME280;55230;42.602;23.470;2023-04-25T00:34:03;92693.66;;;9.46;100.00
11053;BME280;55230;42.602;23.470;2023-04-25T00:36:30;92755.97;;;10.01;100.00
11053;BME280;55230;42.602;23.470;2023-04-25T00:38:57;92754.81;;;9.93;100.00
11053;BME280;55230;42.602;23.470;2023-04-25T00:41:25;92492.50;;;8.17;100.00
11053;BME280;55230;42.602;23.470;2023-04-25T00:43:52;92590.25;;;9.00;100.00
11053;BME280;55230;42.602;23.470;2023-04-25T00:46:20;92626.44;;;9.37;100.00
11053;BME280;55230;42.602;23.470;2023-04-25T00:48:47;92702.97;;;9.83;100.00
11053;BME280;55230;42.602;23.470;2023-04-25T00:51:16;92708.09;;;9.96;100.00
11053;BME280;55230;42.602;23.470;2023-04-25T00:53:45;92564.13;;;9.00;100.00
11053;BME280;55230;42.602;23.470;2023-04-25T00:56:13;92709.44;;;10.00;100.00
11053;BME280;55230;42.602;23.470;2023-04-25T00:58:41;92706.88;;;9.82;100.00
11053;BME280;55230;42.602;23.470;2023-04-25T01:01:08;92698.19;;;10.02;100.00
11053;BME280;55230;42.602;23.470;2023-04-25T01:03:37;92692.75;;;9.87;100.00
11053;BME280;55230;42.602;23.470;2023-04-25T01:06:07;92693.28;;;10.00;100.00
11053;BME280;55230;42.602;23.470;2023-04-25T01:08:36;92675.41;;;9.88;100.00
11053;BME280;55230;42.602;23.470;2023-04-25T01:11:03;92750.47;;;9.95;100.00
11053;BME280;55230;42.602;23.470;2023-04-25T01:13:30;92685.53;;;9.93;100.00
11053;BME280;55230;42.602;23.470;2023-04-25T01:15:58;92476.06;;;8.48;100.00
11053;BME280;55230;42.602;23.470;2023-04-25T01:18:24;92725.28;;;9.98;100.00
11053;BME280;55230;42.602;23.470;2023-04-25T01:20:52;92588.69;;;9.31;100.00
11053;BME280;55230;42.602;23.470;2023-04-25T01:23:21;92642.06;;;9.48;100.00
11053;BME280;55230;42.602;23.470;2023-04-25T01:25:48;92543.16;;;9.04;100.00
11053;BME280;55230;42.602;23.470;2023-04-25T01:28:16;92612.22;;;9.60;100.00
11053;BME280;55230;42.602;23.470;2023-04-25T01:30:42;92678.81;;;10.12;100.00
11053;BME280;55230;42.602;23.470;2023-04-25T01:33:10;92687.25;;;10.20;100.00
11053;BME280;55230;42.602;23.470;2023-04-25T01:35:37;92557.44;;;9.34;100.00
11053;BME280;55230;42.602;23.470;2023-04-25T01:38:05;92689.13;;;10.14;100.00
11053;BME280;55230;42.602;23.470;2023-04-25T01:40:34;92444.09;;;8.27;100.00
11053;BME280;55230;42.602;23.470;2023-04-25T01:43:02;92679.28;;;10.25;100.00
11053;BME280;55230;42.602;23.470;2023-04-25T01:45:29;92670.72;;;10.27;100.00
11053;BME280;55230;42.602;23.470;2023-04-25T01:47:56;92666.28;;;10.24;100.00
11053;BME280;55230;42.602;23.470;2023-04-25T01:50:24;92610.91;;;9.94;100.00
11053;BME280;55230;42.602;23.470;2023-04-25T01:52:51;92662.59;;;10.21;100.00
11053;BME280;55230;42.602;23.470;2023-04-25T01:55:18;92621.63;;;9.79;100.00
11053;BME280;55230;42.602;23.470;2023-04-25T01:57:47;92223.31;;;6.99;100.00
11053;BME280;55230;42.602;23.470;2023-04-25T02:00:14;92628.06;;;9.82;100.00
11053;BME280;55230;42.602;23.470;2023-04-25T02:02:40;92676.00;;;10.07;100.00
11053;BME280;55230;42.602;23.470;2023-04-25T02:05:07;92677.31;;;10.11;100.00
11053;BME280;55230;42.602;23.470;2023-04-25T02:07:34;92677.19;;;9.91;100.00
11053;BME280;55230;42.602;23.470;2023-04-25T02:10:01;92676.41;;;9.76;100.00
11053;BME280;55230;42.602;23.470;2023-04-25T02:12:28;92675.25;;;9.68;100.00
11053;BME280;55230;42.602;23.470;2023-04-25T02:14:56;92683.25;;;9.63;100.00
11053;BME280;55230;42.602;23.470;2023-04-25T02:17:23;92697.34;;;9.58;100.00
11053;BME280;55230;42.602;23.470;2023-04-25T02:19:50;92672.06;;;9.55;100.00
11053;BME280;55230;42.602;23.470;2023-04-25T02:22:17;92670.66;;;9.45;100.00
11053;BME280;55230;42.602;23.470;2023-04-25T02:24:43;92668.31;;;9.38;100.00
11053;BME280;55230;42.602;23.470;2023-04-25T02:27:10;92672.38;;;9.33;100.00
11053;BME280;55230;42.602;23.470;2023-04-25T02:29:37;92658.66;;;9.31;100.00
11053;BME280;55230;42.602;23.470;2023-04-25T02:32:05;92613.88;;;8.96;100.00
11053;BME280;55230;42.602;23.470;2023-04-25T02:34:32;92654.44;;;9.30;100.00
11053;BME280;55230;42.602;23.470;2023-04-25T02:36:59;92624.47;;;8.67;100.00
11053;BME280;55230;42.602;23.470;2023-04-25T02:39:25;92652.81;;;8.77;100.00
11053;BME280;55230;42.602;23.470;2023-04-25T02:41:52;92572.13;;;8.30;100.00
11053;BME280;55230;42.602;23.470;2023-04-25T02:44:19;92475.13;;;7.62;100.00
11053;BME280;55230;42.602;23.470;2023-04-25T02:46:46;92653.38;;;8.81;100.00
11053;BME280;55230;42.602;23.470;2023-04-25T02:49:14;92415.94;;;7.24;100.00
11053;BME280;55230;42.602;23.470;2023-04-25T02:51:41;92570.91;;;8.21;100.00
11053;BME280;55230;42.602;23.470;2023-04-25T02:54:08;92549.00;;;7.81;100.00
11053;BME280;55230;42.602;23.470;2023-04-25T02:56:34;92636.78;;;8.59;100.00
11053;BME280;55230;42.602;23.470;2023-04-25T02:59:01;92647.31;;;8.30;100.00
11053;BME280;55230;42.602;23.470;2023-04-25T03:01:28;92607.13;;;7.93;100.00
11053;BME280;55230;42.602;23.470;2023-04-25T03:03:54;92633.59;;;8.28;100.00
11053;BME280;55230;42.602;23.470;2023-04-25T03:06:23;92634.78;;;8.27;100.00
11053;BME280;55230;42.602;23.470;2023-04-25T03:08:49;92633.00;;;8.24;100.00
11053;BME280;55230;42.602;23.470;2023-04-25T03:11:16;92501.41;;;7.31;100.00
11053;BME280;55230;42.602;23.470;2023-04-25T03:13:45;92620.63;;;8.08;100.00
11053;BME280;55230;42.602;23.470;2023-04-25T03:16:15;92642.25;;;8.23;100.00
11053;BME280;55230;42.602;23.470;2023-04-25T03:18:41;92636.28;;;8.28;100.00
11053;BME280;55230;42.602;23.470;2023-04-25T03:21:08;92533.69;;;7.64;100.00
11053;BME280;55230;42.602;23.470;2023-04-25T03:23:36;92560.13;;;7.89;100.00
11053;BME280;55230;42.602;23.470;2023-04-25T03:26:03;92598.28;;;8.11;100.00
11053;BME280;55230;42.602;23.470;2023-04-25T03:28:30;92638.72;;;8.49;100.00
11053;BME280;55230;42.602;23.470;2023-04-25T03:30:57;92636.81;;;8.50;100.00
11053;BME280;55230;42.602;23.470;2023-04-25T03:33:23;92634.13;;;8.50;100.00
11053;BME280;55230;42.602;23.470;2023-04-25T03:35:50;92591.53;;;8.25;100.00
11053;BME280;55230;42.602;23.470;2023-04-25T03:38:17;92628.41;;;8.57;100.00
11053;BME280;55230;42.602;23.470;2023-04-25T03:40:45;92628.25;;;8.60;100.00
11053;BME280;55230;42.602;23.470;2023-04-25T03:43:12;92570.69;;;8.10;100.00
11053;BME280;55230;42.602;23.470;2023-04-25T03:45:39;92485.25;;;7.58;100.00
11053;BME280;55230;42.602;23.470;2023-04-25T03:48:05;92586.13;;;8.34;100.00
11053;BME280;55230;42.602;23.470;2023-04-25T03:50:32;92609.47;;;8.51;100.00
11053;BME280;55230;42.602;23.470;2023-04-25T03:52:59;92637.72;;;8.47;100.00
11053;BME280;55230;42.602;23.470;2023-04-25T03:55:26;92586.19;;;8.06;100.00
11053;BME280;55230;42.602;23.470;2023-04-25T03:57:54;92594.16;;;8.34;100.00
11053;BME280;55230;42.602;23.470;2023-04-25T04:00:21;92537.44;;;7.99;100.00
11053;BME280;55230;42.602;23.470;2023-04-25T04:02:47;92421.06;;;6.86;100.00
11053;BME280;55230;42.602;23.470;2023-04-25T04:05:14;92621.97;;;8.12;100.00
11053;BME280;55230;42.602;23.470;2023-04-25T04:07:41;92645.50;;;8.36;100.00
11053;BME280;55230;42.602;23.470;2023-04-25T04:10:08;92602.47;;;8.54;100.00
11053;BME280;55230;42.602;23.470;2023-04-25T04:12:35;92591.63;;;8.72;100.00
11053;BME280;55230;42.602;23.470;2023-04-25T04:15:05;92641.94;;;9.27;100.00
11053;BME280;55230;42.602;23.470;2023-04-25T04:17:32;92403.31;;;8.13;100.00
11053;BME280;55230;42.602;23.470;2023-04-25T04:19:59;92682.91;;;10.22;100.00
11053;BME280;55230;42.602;23.470;2023-04-25T04:22:25;92627.38;;;10.89;100.00
11053;BME280;55230;42.602;23.470;2023-04-25T04:24:52;92624.66;;;11.63;100.00
11053;BME280;55230;42.602;23.470;2023-04-25T04:27:19;92640.47;;;12.16;100.00
11053;BME280;55230;42.602;23.470;2023-04-25T04:29:46;92628.84;;;12.67;100.00
11053;BME280;55230;42.602;23.470;2023-04-25T04:32:15;92645.06;;;12.10;100.00
11053;BME280;55230;42.602;23.470;2023-04-25T04:34:42;92652.13;;;11.62;100.00
11053;BME280;55230;42.602;23.470;2023-04-25T04:37:10;92254.66;;;8.26;100.00
11053;BME280;55230;42.602;23.470;2023-04-25T04:39:38;92588.41;;;11.10;100.00
11053;BME280;55230;42.602;23.470;2023-04-25T04:42:05;92609.31;;;10.95;100.00
11053;BME280;55230;42.602;23.470;2023-04-25T04:44:32;92634.88;;;10.50;100.00
11053;BME280;55230;42.602;23.470;2023-04-25T04:46:59;92270.28;;;8.12;100.00
11053;BME280;55230;42.602;23.470;2023-04-25T04:49:28;92557.03;;;9.79;100.00
11053;BME280;55230;42.602;23.470;2023-04-25T04:51:55;92664.22;;;10.77;100.00
11053;BME280;55230;42.602;23.470;2023-04-25T04:54:22;92616.13;;;10.76;100.00
11053;BME280;55230;42.602;23.470;2023-04-25T04:56:49;92645.03;;;10.90;100.00
11053;BME280;55230;42.602;23.470;2023-04-25T04:59:16;92516.94;;;9.52;100.00
11053;BME280;55230;42.602;23.470;2023-04-25T05:01:43;92650.72;;;9.90;100.00
11053;BME280;55230;42.602;23.470;2023-04-25T05:04:09;92650.44;;;9.88;100.00
11053;BME280;55230;42.602;23.470;2023-04-25T05:06:38;92652.16;;;10.14;100.00
11053;BME280;55230;42.602;23.470;2023-04-25T05:09:04;92623.53;;;10.02;100.00
11053;BME280;55230;42.602;23.470;2023-04-25T05:11:31;92645.16;;;9.93;100.00
11053;BME280;55230;42.602;23.470;2023-04-25T05:13:58;92670.44;;;9.72;100.00
11053;BME280;55230;42.602;23.470;2023-04-25T05:16:25;92649.63;;;9.58;100.00
11053;BME280;55230;42.602;23.470;2023-04-25T05:18:51;92566.69;;;8.71;100.00
11053;BME280;55230;42.602;23.470;2023-04-25T05:21:18;92594.78;;;9.17;100.00
11053;BME280;55230;42.602;23.470;2023-04-25T05:23:46;92517.50;;;8.33;100.00
11053;BME280;55230;42.602;23.470;2023-04-25T05:26:13;92595.06;;;8.96;100.00
11053;BME280;55230;42.602;23.470;2023-04-25T05:28:40;92721.41;;;9.28;100.00
11053;BME280;55230;42.602;23.470;2023-04-25T05:31:07;92688.16;;;9.17;100.00
11053;BME280;55230;42.602;23.470;2023-04-25T05:33:34;92668.84;;;8.95;100.00
11053;BME280;55230;42.602;23.470;2023-04-25T05:36:00;92606.59;;;8.31;100.00
11053;BME280;55230;42.602;23.470;2023-04-25T05:38:27;92685.88;;;9.24;100.00
11053;BME280;55230;42.602;23.470;2023-04-25T05:40:56;92697.16;;;9.14;100.00
11053;BME280;55230;42.602;23.470;2023-04-25T05:43:23;92718.44;;;9.26;100.00
11053;BME280;55230;42.602;23.470;2023-04-25T05:45:49;92644.28;;;9.11;100.00
11053;BME280;55230;42.602;23.470;2023-04-25T05:48:16;92684.91;;;9.60;100.00
11053;BME280;55230;42.602;23.470;2023-04-25T05:50:43;92671.56;;;9.80;100.00
11053;BME280;55230;42.602;23.470;2023-04-25T05:53:10;92687.13;;;9.85;100.00
11053;BME280;55230;42.602;23.470;2023-04-25T05:55:36;92672.38;;;9.95;100.00
11053;BME280;55230;42.602;23.470;2023-04-25T05:58:05;92624.56;;;9.52;100.00
11053;BME280;55230;42.602;23.470;2023-04-25T06:00:32;92670.44;;;9.72;100.00
11053;BME280;55230;42.602;23.470;2023-04-25T06:02:59;92646.16;;;9.81;100.00
11053;BME280;55230;42.602;23.470;2023-04-25T06:05:26;92665.28;;;9.98;100.00
11053;BME280;55230;42.602;23.470;2023-04-25T06:07:53;92539.13;;;9.09;100.00
11053;BME280;55230;42.602;23.470;2023-04-25T06:10:20;92527.13;;;8.95;100.00
11053;BME280;55230;42.602;23.470;2023-04-25T06:12:48;92664.78;;;9.70;100.00
11053;BME280;55230;42.602;23.470;2023-04-25T06:15:16;92303.72;;;7.64;100.00
11053;BME280;55230;42.602;23.470;2023-04-25T06:17:42;92495.13;;;8.97;100.00
11053;BME280;55230;42.602;23.470;2023-04-25T06:20:10;92688.50;;;10.63;100.00
11053;BME280;55230;42.602;23.470;2023-04-25T06:22:37;92645.03;;;10.90;100.00
11053;BME280;55230;42.602;23.470;2023-04-25T06:25:04;92672.50;;;11.43;100.00
11053;BME280;55230;42.602;23.470;2023-04-25T06:27:32;92694.41;;;11.30;100.00
11053;BME280;55230;42.602;23.470;2023-04-25T06:29:59;92582.47;;;10.36;100.00
11053;BME280;55230;42.602;23.470;2023-04-25T06:32:27;92685.59;;;10.81;100.00
11053;BME280;55230;42.602;23.470;2023-04-25T06:34:55;92649.50;;;9.91;100.00
11053;BME280;55230;42.602;23.470;2023-04-25T06:37:22;92627.66;;;10.12;100.00
11053;BME280;55230;42.602;23.470;2023-04-25T06:39:49;92376.16;;;8.59;100.00
11053;BME280;55230;42.602;23.470;2023-04-25T06:42:15;92417.72;;;8.87;100.00
11053;BME280;55230;42.602;23.470;2023-04-25T06:44:42;92694.44;;;10.81;100.00
11053;BME280;55230;42.602;23.470;2023-04-25T06:47:09;92659.97;;;10.41;100.00
11053;BME280;55230;42.602;23.470;2023-04-25T06:49:37;92591.13;;;10.11;100.00
11053;BME280;55230;42.602;23.470;2023-04-25T06:52:04;92613.47;;;10.03;100.00
11053;BME280;55230;42.602;23.470;2023-04-25T06:54:31;92630.69;;;10.34;100.00
11053;BME280;55230;42.602;23.470;2023-04-25T06:56:57;92662.84;;;10.53;100.00
11053;BME280;55230;42.602;23.470;2023-04-25T06:59:26;92514.69;;;9.94;100.00
11053;BME280;55230;42.602;23.470;2023-04-25T07:01:53;92717.97;;;11.85;100.00
11053;BME280;55230;42.602;23.470;2023-04-25T07:04:19;92646.81;;;11.68;100.00
11053;BME280;55230;42.602;23.470;2023-04-25T07:06:48;92645.97;;;12.02;100.00
11053;BME280;55230;42.602;23.470;2023-04-25T07:09:15;92677.59;;;12.72;100.00
11053;BME280;55230;42.602;23.470;2023-04-25T07:11:42;92713.03;;;13.37;100.00
11053;BME280;55230;42.602;23.470;2023-04-25T07:14:08;92671.94;;;13.02;100.00
11053;BME280;55230;42.602;23.470;2023-04-25T07:16:35;92201.72;;;10.51;100.00
11053;BME280;55230;42.602;23.470;2023-04-25T07:19:02;92757.75;;;14.70;95.42
11053;BME280;55230;42.602;23.470;2023-04-25T07:21:29;92677.34;;;15.00;94.36
11053;BME280;55230;42.602;23.470;2023-04-25T07:23:59;92707.66;;;15.65;85.48
11053;BME280;55230;42.602;23.470;2023-04-25T07:26:25;92346.72;;;13.09;86.25
11053;BME280;55230;42.602;23.470;2023-04-25T07:28:52;92629.41;;;15.47;77.89
11053;BME280;55230;42.602;23.470;2023-04-25T07:31:20;92604.03;;;14.94;79.60
11053;BME280;55230;42.602;23.470;2023-04-25T07:33:46;92706.47;;;14.94;83.04
11053;BME280;55230;42.602;23.470;2023-04-25T07:36:13;92703.94;;;14.41;83.63
11053;BME280;55230;42.602;23.470;2023-04-25T07:38:40;92669.44;;;14.74;85.75
11053;BME280;55230;42.602;23.470;2023-04-25T07:41:09;92669.06;;;14.17;84.06
11053;BME280;55230;42.602;23.470;2023-04-25T07:43:35;92642.78;;;13.70;86.56
11053;BME280;55230;42.602;23.470;2023-04-25T07:46:02;92590.00;;;13.49;87.61
11053;BME280;55230;42.602;23.470;2023-04-25T07:48:29;92681.38;;;14.13;89.21
11053;BME280;55230;42.602;23.470;2023-04-25T07:50:56;92618.19;;;13.73;89.87
11053;BME280;55230;42.602;23.470;2023-04-25T07:53:23;92683.38;;;13.59;92.49
11053;BME280;55230;42.602;23.470;2023-04-25T07:55:50;92643.47;;;12.80;96.83
11053;BME280;55230;42.602;23.470;2023-04-25T07:58:18;92677.34;;;13.38;100.00
11053;BME280;55230;42.602;23.470;2023-04-25T08:00:47;92680.13;;;13.55;100.00
11053;BME280;55230;42.602;23.470;2023-04-25T08:03:13;92396.25;;;11.77;100.00
11053;BME280;55230;42.602;23.470;2023-04-25T08:05:40;92686.38;;;14.36;97.75
11053;BME280;55230;42.602;23.470;2023-04-25T08:08:07;92672.09;;;14.41;94.50
11053;BME280;55230;42.602;23.470;2023-04-25T08:10:34;92692.63;;;15.14;92.66
11053;BME280;55230;42.602;23.470;2023-04-25T08:13:00;92615.13;;;14.96;89.72
11053;BME280;55230;42.602;23.470;2023-04-25T08:15:29;92603.53;;;15.01;90.13
11053;BME280;55230;42.602;23.470;2023-04-25T08:17:55;92664.19;;;15.54;85.74
11053;BME280;55230;42.602;23.470;2023-04-25T08:20:22;92672.59;;;15.56;82.97
11053;BME280;55230;42.602;23.470;2023-04-25T08:22:50;92661.84;;;15.96;79.32
11053;BME280;55230;42.602;23.470;2023-04-25T08:25:17;92599.47;;;15.63;77.68
11053;BME280;55230;42.602;23.470;2023-04-25T08:27:43;92697.69;;;15.95;77.89
11053;BME280;55230;42.602;23.470;2023-04-25T08:30:11;92702.59;;;16.07;76.22
11053;BME280;55230;42.602;23.470;2023-04-25T08:32:39;92706.47;;;16.23;73.74
11053;BME280;55230;42.602;23.470;2023-04-25T08:35:06;92690.41;;;16.71;74.22
11053;BME280;55230;42.602;23.470;2023-04-25T08:37:33;92676.22;;;16.84;77.68
11053;BME280;55230;42.602;23.470;2023-04-25T08:40:00;92630.22;;;16.40;77.70
11053;BME280;55230;42.602;23.470;2023-04-25T08:42:28;92629.56;;;16.98;70.60
11053;BME280;55230;42.602;23.470;2023-04-25T08:44:57;92632.38;;;16.87;66.41
11053;BME280;55230;42.602;23.470;2023-04-25T08:47:25;92679.09;;;16.62;58.86
11053;BME280;55230;42.602;23.470;2023-04-25T08:49:56;92667.88;;;16.30;62.04
11053;BME280;55230;42.602;23.470;2023-04-25T08:52:23;92665.13;;;15.73;67.25
11053;BME280;55230;42.602;23.470;2023-04-25T08:54:51;92470.41;;;14.11;60.76
11053;BME280;55230;42.602;23.470;2023-04-25T08:57:19;92600.34;;;14.86;60.45
11053;BME280;55230;42.602;23.470;2023-04-25T08:59:47;92619.78;;;15.46;69.49
11053;BME280;55230;42.602;23.470;2023-04-25T09:02:14;92674.59;;;15.39;67.87
11053;BME280;55230;42.602;23.470;2023-04-25T09:04:43;92673.63;;;14.81;71.61
11053;BME280;55230;42.602;23.470;2023-04-25T09:07:12;92561.06;;;13.88;73.39
11053;BME280;55230;42.602;23.470;2023-04-25T09:09:41;92674.84;;;14.91;72.84
11053;BME280;55230;42.602;23.470;2023-04-25T09:12:08;92681.28;;;15.16;71.76
11053;BME280;55230;42.602;23.470;2023-04-25T09:14:35;92674.31;;;15.59;73.17
11053;BME280;55230;42.602;23.470;2023-04-25T09:17:04;92659.53;;;15.49;70.19
11053;BME280;55230;42.602;23.470;2023-04-25T09:19:34;92221.56;;;12.05;68.23
11053;BME280;55230;42.602;23.470;2023-04-25T09:22:02;92672.41;;;15.04;78.76
11053;BME280;55230;42.602;23.470;2023-04-25T09:24:35;92669.31;;;15.74;74.41
11053;BME280;55230;42.602;23.470;2023-04-25T09:27:06;92659.00;;;15.56;80.09
11053;BME280;55230;42.602;23.470;2023-04-25T09:29:35;92666.72;;;14.96;89.88
11053;BME280;55230;42.602;23.470;2023-04-25T09:32:15;92637.38;;;14.84;87.52
11053;BME280;55230;42.602;23.470;2023-04-25T09:34:43;92646.94;;;15.29;83.88
11053;BME280;55230;42.602;23.470;2023-04-25T09:37:10;92566.81;;;14.62;84.84
11053;BME280;55230;42.602;23.470;2023-04-25T09:39:38;92630.13;;;15.53;81.80
11053;BME280;55230;42.602;23.470;2023-04-25T09:42:05;92575.72;;;15.64;83.26
11053;BME280;55230;42.602;23.470;2023-04-25T09:44:32;92602.91;;;15.64;75.39
11053;BME280;55230;42.602;23.470;2023-04-25T09:46:59;92615.03;;;15.57;80.78
11053;BME280;55230;42.602;23.470;2023-04-25T09:49:28;92645.25;;;16.00;77.90
11053;BME280;55230;42.602;23.470;2023-04-25T09:51:55;92633.31;;;16.14;77.28
11053;BME280;55230;42.602;23.470;2023-04-25T09:54:23;92671.66;;;16.16;76.78
11053;BME280;55230;42.602;23.470;2023-04-25T09:56:53;92584.25;;;15.11;81.91
11053;BME280;55230;42.602;23.470;2023-04-25T09:59:21;92590.69;;;15.07;86.10
11053;BME280;55230;42.602;23.470;2023-04-25T10:01:49;92656.84;;;14.93;88.72
11053;BME280;55230;42.602;23.470;2023-04-25T10:04:20;92663.22;;;14.46;83.78
11053;BME280;55230;42.602;23.470;2023-04-25T10:06:49;92731.31;;;14.48;75.57
11053;BME280;55230;42.602;23.470;2023-04-25T10:09:20;92576.09;;;14.00;71.33
11053;BME280;55230;42.602;23.470;2023-04-25T10:11:48;92649.44;;;14.77;76.70
11053;BME280;55230;42.602;23.470;2023-04-25T10:14:18;92425.50;;;13.22;70.12
11053;BME280;55230;42.602;23.470;2023-04-25T10:16:45;92589.75;;;14.55;80.60
11053;BME280;55230;42.602;23.470;2023-04-25T10:19:13;92644.97;;;15.30;79.96
11053;BME280;55230;42.602;23.470;2023-04-25T10:21:46;92520.19;;;14.63;78.98
11053;BME280;55230;42.602;23.470;2023-04-25T10:24:15;92561.06;;;15.15;75.27
11053;BME280;55230;42.602;23.470;2023-04-25T10:26:42;92623.38;;;15.70;76.66
11053;BME280;55230;42.602;23.470;2023-04-25T10:29:09;92624.94;;;16.12;80.85
11053;BME280;55230;42.602;23.470;2023-04-25T10:31:45;92467.75;;;15.13;71.53
11053;BME280;55230;42.602;23.470;2023-04-25T10:34:12;92506.47;;;16.16;69.43
11053;BME280;55230;42.602;23.470;2023-04-25T10:36:39;92630.06;;;16.21;67.63
11053;BME280;55230;42.602;23.470;2023-04-25T10:39:07;92401.44;;;13.90;69.56
11053;BME280;55230;42.602;23.470;2023-04-25T10:41:46;92574.06;;;15.39;75.16
11053;BME280;55230;42.602;23.470;2023-04-25T10:44:13;92640.31;;;14.69;89.89
11053;BME280;55230;42.602;23.470;2023-04-25T10:46:44;92619.09;;;14.51;88.51
11053;BME280;55230;42.602;23.470;2023-04-25T10:49:28;92458.25;;;13.35;86.53
11053;BME280;55230;42.602;23.470;2023-04-25T10:52:11;92638.34;;;14.75;82.91
11053;BME280;55230;42.602;23.470;2023-04-25T10:54:41;92355.34;;;13.13;84.39
11053;BME280;55230;42.602;23.470;2023-04-25T10:57:26;92631.63;;;15.21;81.62
11053;BME280;55230;42.602;23.470;2023-04-25T10:59:54;92580.78;;;15.16;74.99
11053;BME280;55230;42.602;23.470;2023-04-25T11:02:27;92653.75;;;15.80;74.56
11053;BME280;55230;42.602;23.470;2023-04-25T11:04:54;92574.69;;;15.78;74.45
11053;BME280;55230;42.602;23.470;2023-04-25T11:07:29;92653.41;;;14.60;77.07
11053;BME280;55230;42.602;23.470;2023-04-25T11:10:01;92646.38;;;14.09;82.38
11053;BME280;55230;42.602;23.470;2023-04-25T11:12:30;92650.53;;;13.40;83.77
11053;BME280;55230;42.602;23.470;2023-04-25T11:15:02;92658.66;;;12.72;83.36
11053;BME280;55230;42.602;23.470;2023-04-25T11:17:31;92672.19;;;12.72;85.03
11053;BME280;55230;42.602;23.470;2023-04-25T11:19:58;92510.53;;;11.63;87.64
11053;BME280;55230;42.602;23.470;2023-04-25T11:22:26;92413.50;;;10.83;88.35
11053;BME280;55230;42.602;23.470;2023-04-25T11:24:53;92573.66;;;11.91;92.02
11053;BME280;55230;42.602;23.470;2023-04-25T11:27:20;92615.13;;;12.70;93.08
11053;BME280;55230;42.602;23.470;2023-04-25T11:29:50;92645.63;;;13.02;90.76
11053;BME280;55230;42.602;23.470;2023-04-25T11:32:17;92632.06;;;13.39;93.86
11053;BME280;55230;42.602;23.470;2023-04-25T11:34:46;92583.06;;;13.37;99.39
11053;BME280;55230;42.602;23.470;2023-04-25T11:37:13;92632.69;;;13.70;97.29
11053;BME280;55230;42.602;23.470;2023-04-25T11:39:43;92648.28;;;13.92;94.82
11053;BME280;55230;42.602;23.470;2023-04-25T11:42:11;92615.56;;;14.01;95.84
11053;BME280;55230;42.602;23.470;2023-04-25T11:44:39;92497.72;;;13.74;89.73
11053;BME280;55230;42.602;23.470;2023-04-25T11:47:06;92688.94;;;15.00;88.77
11053;BME280;55230;42.602;23.470;2023-04-25T11:49:33;92629.69;;;14.88;85.77
11053;BME280;55230;42.602;23.470;2023-04-25T11:52:02;92626.16;;;14.10;89.10
11053;BME280;55230;42.602;23.470;2023-04-25T11:54:29;92641.34;;;13.80;87.66
11053;BME280;55230;42.602;23.470;2023-04-25T11:56:56;92598.03;;;13.32;88.56
11053;BME280;55230;42.602;23.470;2023-04-25T11:59:24;92558.91;;;13.28;90.09
11053;BME280;55230;42.602;23.470;2023-04-25T12:01:52;92649.41;;;13.63;87.31
11053;BME280;55230;42.602;23.470;2023-04-25T12:04:20;92644.56;;;13.78;89.95
11053;BME280;55230;42.602;23.470;2023-04-25T12:06:48;92634.75;;;13.98;88.99
11053;BME280;55230;42.602;23.470;2023-04-25T12:09:19;92600.22;;;13.81;89.82
11053;BME280;55230;42.602;23.470;2023-04-25T12:11:48;92570.84;;;13.58;94.07
11053;BME280;55230;42.602;23.470;2023-04-25T12:14:21;92541.44;;;13.34;93.54
11053;BME280;55230;42.602;23.470;2023-04-25T12:16:49;92595.19;;;13.52;98.85
11053;BME280;55230;42.602;23.470;2023-04-25T12:19:17;92554.53;;;12.94;98.05
11053;BME280;55230;42.602;23.470;2023-04-25T12:21:44;92560.66;;;12.89;99.20
11053;BME280;55230;42.602;23.470;2023-04-25T12:24:12;92459.63;;;12.13;99.78
11053;BME280;55230;42.602;23.470;2023-04-25T12:26:50;92618.84;;;13.57;98.41
11053;BME280;55230;42.602;23.470;2023-04-25T12:29:19;92605.63;;;13.81;100.00
11053;BME280;55230;42.602;23.470;2023-04-25T12:31:46;92589.41;;;13.87;97.82
11053;BME280;55230;42.602;23.470;2023-04-25T12:34:13;92613.63;;;14.18;98.13
11053;BME280;55230;42.602;23.470;2023-04-25T12:36:40;92576.41;;;14.13;90.97
11053;BME280;55230;42.602;23.470;2023-04-25T12:39:07;92587.78;;;14.83;94.77
11053;BME280;55230;42.602;23.470;2023-04-25T12:41:35;92549.78;;;14.83;92.05
11053;BME280;55230;42.602;23.470;2023-04-25T12:44:04;92537.47;;;14.49;79.38
11053;BME280;55230;42.602;23.470;2023-04-25T12:46:31;92591.97;;;14.73;78.34
11053;BME280;55230;42.602;23.470;2023-04-25T12:48:57;92613.91;;;14.75;79.60
11053;BME280;55230;42.602;23.470;2023-04-25T12:51:25;92624.28;;;14.88;82.67